sensor_id;sensor_type;location;lat;lon;timestamp;P1;durP1;ratioP1;P2;durP2;ratioP2
1414;SDS011;702;49.466;11.086;2023-04-24T00:02:01;1.23;;;1.10;;
1414;SDS011;702;49.466;11.086;2023-04-24T00:04:29;1.67;;;1.57;;
1414;SDS011;702;49.466;11.086;2023-04-24T00:06:57;2.17;;;1.80;;
1414;SDS011;702;49.466;11.086;2023-04-24T00:09:25;1.53;;;1.43;;
1414;SDS011;702;49.466;11.086;2023-04-24T00:11:53;1.43;;;1.33;;
1414;SDS011;702;49.466;11.086;2023-04-24T00:14:21;1.83;;;1.37;;
1414;SDS011;702;49.466;11.086;2023-04-24T00:16:48;1.47;;;1.37;;
1414;SDS011;702;49.466;11.086;2023-04-24T00:19:15;1.90;;;1.57;;
1414;SDS011;702;49.466;11.086;2023-04-24T00:21:46;1.30;;;1.20;;
1414;SDS011;702;49.466;11.086;2023-04-24T00:24:15;1.53;;;1.27;;
1414;SDS011;702;49.466;11.086;2023-04-24T00:26:42;1.80;;;1.30;;
1414;SDS011;702;49.466;11.086;2023-04-24T00:29:11;2.50;;;1.77;;
1414;SDS011;702;49.466;11.086;2023-04-24T00:31:38;1.30;;;1.20;;
1414;SDS011;702;49.466;11.086;2023-04-24T00:34:06;1.40;;;1.30;;
1414;SDS011;702;49.466;11.086;2023-04-24T00:36:33;1.40;;;1.23;;
1414;SDS011;702;49.466;11.086;2023-04-24T00:39:00;1.80;;;1.60;;
1414;SDS011;702;49.466;11.086;2023-04-24T00:41:27;1.37;;;1.27;;
1414;SDS011;702;49.466;11.086;2023-04-24T00:43:55;1.33;;;1.23;;
1414;SDS011;702;49.466;11.086;2023-04-24T00:46:23;1.50;;;1.40;;
1414;SDS011;702;49.466;11.086;2023-04-24T00:48:51;2.00;;;1.80;;
1414;SDS011;702;49.466;11.086;2023-04-24T00:51:18;1.10;;;1.00;;
1414;SDS011;702;49.466;11.086;2023-04-24T00:53:46;1.63;;;1.53;;
1414;SDS011;702;49.466;11.086;2023-04-24T00:56:13;1.40;;;1.27;;
1414;SDS011;702;49.466;11.086;2023-04-24T00:58:41;1.73;;;1.63;;
1414;SDS011;702;49.466;11.086;2023-04-24T01:01:08;1.40;;;1.30;;
1414;SDS011;702;49.466;11.086;2023-04-24T01:03:38;2.00;;;1.60;;
1414;SDS011;702;49.466;11.086;2023-04-24T01:06:07;1.47;;;1.37;;
1414;SDS011;702;49.466;11.086;2023-04-24T01:08:36;2.73;;;1.53;;
1414;SDS011;702;49.466;11.086;2023-04-24T01:11:04;1.67;;;1.57;;
1414;SDS011;702;49.466;11.086;2023-04-24T01:13:32;2.40;;;1.87;;
1414;SDS011;702;49.466;11.086;2023-04-24T01:16:00;2.00;;;1.53;;
1414;SDS011;702;49.466;11.086;2023-04-24T01:18:28;2.07;;;1.67;;
1414;SDS011;702;49.466;11.086;2023-04-24T01:20:57;2.50;;;1.30;;
1414;SDS011;702;49.466;11.086;2023-04-24T01:23:27;1.33;;;1.23;;
1414;SDS011;702;49.466;11.086;2023-04-24T01:25:54;1.33;;;1.10;;
1414;SDS011;702;49.466;11.086;2023-04-24T01:28:22;1.10;;;1.00;;
1414;SDS011;702;49.466;11.086;2023-04-24T01:30:49;1.20;;;1.10;;
1414;SDS011;702;49.466;11.086;2023-04-24T01:33:17;0.90;;;0.87;;
1414;SDS011;702;49.466;11.086;2023-04-24T01:35:46;1.07;;;0.90;;
1414;SDS011;702;49.466;11.086;2023-04-24T01:38:13;0.73;;;0.73;;
1414;SDS011;702;49.466;11.086;2023-04-24T01:40:41;0.90;;;0.70;;
1414;SDS011;702;49.466;11.086;2023-04-24T01:43:08;1.23;;;1.13;;
1414;SDS011;702;49.466;11.086;2023-04-24T01:45:35;0.90;;;0.90;;
1414;SDS011;702;49.466;11.086;2023-04-24T01:48:02;2.47;;;0.97;;
1414;SDS011;702;49.466;11.086;2023-04-24T01:50:31;2.30;;;0.80;;
1414;SDS011;702;49.466;11.086;2023-04-24T01:52:58;0.93;;;0.90;;
1414;SDS011;702;49.466;11.086;2023-04-24T01:55:25;1.10;;;0.93;;
1414;SDS011;702;49.466;11.086;2023-04-24T01:57:54;1.63;;;0.90;;
1414;SDS011;702;49.466;11.086;2023-04-24T02:00:22;0.80;;;0.80;;
1414;SDS011;702;49.466;11.086;2023-04-24T02:02:50;0.90;;;0.83;;
1414;SDS011;702;49.466;11.086;2023-04-24T02:05:18;0.73;;;0.70;;
1414;SDS011;702;49.466;11.086;2023-04-24T02:07:45;0.70;;;0.70;;
1414;SDS011;702;49.466;11.086;2023-04-24T02:10:12;0.90;;;0.70;;
1414;SDS011;702;49.466;11.086;2023-04-24T02:12:39;0.80;;;0.80;;
1414;SDS011;702;49.466;11.086;2023-04-24T02:15:08;1.07;;;0.70;;
1414;SDS011;702;49.466;11.086;2023-04-24T02:17:37;0.70;;;0.67;;
1414;SDS011;702;49.466;11.086;2023-04-24T02:20:04;0.77;;;0.60;;
1414;SDS011;702;49.466;11.086;2023-04-24T02:22:33;2.70;;;0.90;;
1414;SDS011;702;49.466;11.086;2023-04-24T02:25:00;0.63;;;0.60;;
1414;SDS011;702;49.466;11.086;2023-04-24T02:27:28;0.77;;;0.70;;
1414;SDS011;702;49.466;11.086;2023-04-24T02:29:55;1.37;;;0.90;;
1414;SDS011;702;49.466;11.086;2023-04-24T02:32:24;1.20;;;1.03;;
1414;SDS011;702;49.466;11.086;2023-04-24T02:34:51;0.97;;;0.57;;
1414;SDS011;702;49.466;11.086;2023-04-24T02:37:18;0.87;;;0.77;;
1414;SDS011;702;49.466;11.086;2023-04-24T02:39:47;0.80;;;0.53;;
1414;SDS011;702;49.466;11.086;2023-04-24T02:42:14;0.97;;;0.90;;
1414;SDS011;702;49.466;11.086;2023-04-24T02:44:42;0.93;;;0.70;;
1414;SDS011;702;49.466;11.086;2023-04-24T02:47:10;1.03;;;0.93;;
1414;SDS011;702;49.466;11.086;2023-04-24T02:49:38;0.97;;;0.80;;
1414;SDS011;702;49.466;11.086;2023-04-24T02:52:06;0.83;;;0.80;;
1414;SDS011;702;49.466;11.086;2023-04-24T02:54:33;0.73;;;0.70;;
1414;SDS011;702;49.466;11.086;2023-04-24T02:57:00;0.90;;;0.70;;
1414;SDS011;702;49.466;11.086;2023-04-24T02:59:27;1.00;;;0.90;;
1414;SDS011;702;49.466;11.086;2023-04-24T03:01:55;0.80;;;0.80;;
1414;SDS011;702;49.466;11.086;2023-04-24T03:04:22;0.90;;;0.87;;
1414;SDS011;702;49.466;11.086;2023-04-24T03:06:52;1.10;;;0.93;;
1414;SDS011;702;49.466;11.086;2023-04-24T03:09:21;0.97;;;0.70;;
1414;SDS011;702;49.466;11.086;2023-04-24T03:11:49;1.33;;;0.97;;
1414;SDS011;702;49.466;11.086;2023-04-24T03:14:16;1.57;;;1.37;;
1414;SDS011;702;49.466;11.086;2023-04-24T03:16:44;1.37;;;1.23;;
1414;SDS011;702;49.466;11.086;2023-04-24T03:19:11;2.37;;;1.27;;
1414;SDS011;702;49.466;11.086;2023-04-24T03:21:39;1.77;;;1.67;;
1414;SDS011;702;49.466;11.086;2023-04-24T03:24:08;3.00;;;1.40;;
1414;SDS011;702;49.466;11.086;2023-04-24T03:26:35;1.67;;;1.40;;
1414;SDS011;702;49.466;11.086;2023-04-24T03:29:02;2.10;;;1.40;;
1414;SDS011;702;49.466;11.086;2023-04-24T03:31:29;1.57;;;1.20;;
1414;SDS011;702;49.466;11.086;2023-04-24T03:33:59;3.07;;;1.63;;
1414;SDS011;702;49.466;11.086;2023-04-24T03:36:26;2.20;;;1.57;;
1414;SDS011;702;49.466;11.086;2023-04-24T03:38:54;1.33;;;1.23;;
1414;SDS011;702;49.466;11.086;2023-04-24T03:41:22;2.40;;;1.77;;
1414;SDS011;702;49.466;11.086;2023-04-24T03:43:50;1.87;;;1.37;;
1414;SDS011;702;49.466;11.086;2023-04-24T03:46:17;1.40;;;1.30;;
1414;SDS011;702;49.466;11.086;2023-04-24T03:48:44;1.87;;;1.60;;
1414;SDS011;702;49.466;11.086;2023-04-24T03:51:12;1.53;;;1.43;;
1414;SDS011;702;49.466;11.086;2023-04-24T03:53:39;1.30;;;1.03;;
1414;SDS011;702;49.466;11.086;2023-04-24T03:56:06;1.57;;;1.33;;
1414;SDS011;702;49.466;11.086;2023-04-24T03:58:37;1.40;;;1.30;;
1414;SDS011;702;49.466;11.086;2023-04-24T04:01:04;1.33;;;1.20;;
1414;SDS011;702;49.466;11.086;2023-04-24T04:03:31;1.70;;;1.13;;
1414;SDS011;702;49.466;11.086;2023-04-24T04:05:59;1.10;;;1.03;;
1414;SDS011;702;49.466;11.086;2023-04-24T04:08:26;1.60;;;1.20;;
1414;SDS011;702;49.466;11.086;2023-04-24T04:10:54;2.10;;;1.23;;
1414;SDS011;702;49.466;11.086;2023-04-24T04:13:21;2.90;;;1.07;;
1414;SDS011;702;49.466;11.086;2023-04-24T04:15:49;1.23;;;1.13;;
1414;SDS011;702;49.466;11.086;2023-04-24T04:18:16;1.37;;;1.10;;
1414;SDS011;702;49.466;11.086;2023-04-24T04:20:43;1.60;;;1.23;;
1414;SDS011;702;49.466;11.086;2023-04-24T04:23:10;1.23;;;1.13;;
1414;SDS011;702;49.466;11.086;2023-04-24T04:25:37;2.00;;;1.17;;
1414;SDS011;702;49.466;11.086;2023-04-24T04:28:05;2.00;;;1.40;;
1414;SDS011;702;49.466;11.086;2023-04-24T04:30:32;2.60;;;1.37;;
1414;SDS011;702;49.466;11.086;2023-04-24T04:33:01;2.13;;;1.33;;
1414;SDS011;702;49.466;11.086;2023-04-24T04:35:28;1.70;;;1.30;;
1414;SDS011;702;49.466;11.086;2023-04-24T04:37:55;1.60;;;1.50;;
1414;SDS011;702;49.466;11.086;2023-04-24T04:40:23;1.40;;;1.30;;
1414;SDS011;702;49.466;11.086;2023-04-24T04:42:52;3.30;;;1.30;;
1414;SDS011;702;49.466;11.086;2023-04-24T04:45:19;2.23;;;1.80;;
1414;SDS011;702;49.466;11.086;2023-04-24T04:47:47;3.87;;;1.60;;
1414;SDS011;702;49.466;11.086;2023-04-24T04:50:15;1.80;;;1.50;;
1414;SDS011;702;49.466;11.086;2023-04-24T04:52:44;1.73;;;1.63;;
1414;SDS011;702;49.466;11.086;2023-04-24T04:55:11;1.97;;;1.60;;
1414;SDS011;702;49.466;11.086;2023-04-24T04:57:38;1.70;;;1.60;;
1414;SDS011;702;49.466;11.086;2023-04-24T05:00:06;1.40;;;1.23;;
1414;SDS011;702;49.466;11.086;2023-04-24T05:02:36;1.73;;;1.33;;
1414;SDS011;702;49.466;11.086;2023-04-24T05:05:05;1.70;;;1.60;;
1414;SDS011;702;49.466;11.086;2023-04-24T05:07:34;1.90;;;1.37;;
1414;SDS011;702;49.466;11.086;2023-04-24T05:10:01;2.40;;;2.00;;
1414;SDS011;702;49.466;11.086;2023-04-24T05:12:29;2.57;;;1.90;;
1414;SDS011;702;49.466;11.086;2023-04-24T05:14:56;1.50;;;1.40;;
1414;SDS011;702;49.466;11.086;2023-04-24T05:17:24;3.60;;;2.17;;
1414;SDS011;702;49.466;11.086;2023-04-24T05:19:51;1.97;;;1.87;;
1414;SDS011;702;49.466;11.086;2023-04-24T05:22:19;1.60;;;1.50;;
1414;SDS011;702;49.466;11.086;2023-04-24T05:24:47;2.10;;;1.90;;
1414;SDS011;702;49.466;11.086;2023-04-24T05:27:14;3.23;;;1.97;;
1414;SDS011;702;49.466;11.086;2023-04-24T05:29:42;1.83;;;1.73;;
1414;SDS011;702;49.466;11.086;2023-04-24T05:32:10;2.67;;;1.73;;
1414;SDS011;702;49.466;11.086;2023-04-24T05:34:37;2.03;;;1.90;;
1414;SDS011;702;49.466;11.086;2023-04-24T05:37:04;2.63;;;2.00;;
1414;SDS011;702;49.466;11.086;2023-04-24T05:39:34;1.87;;;1.77;;
1414;SDS011;702;49.466;11.086;2023-04-24T05:42:02;1.50;;;1.40;;
1414;SDS011;702;49.466;11.086;2023-04-24T05:44:30;2.00;;;1.80;;
1414;SDS011;702;49.466;11.086;2023-04-24T05:46:57;2.13;;;1.93;;
1414;SDS011;702;49.466;11.086;2023-04-24T05:49:25;2.30;;;1.93;;
1414;SDS011;702;49.466;11.086;2023-04-24T05:51:52;2.57;;;2.13;;
1414;SDS011;702;49.466;11.086;2023-04-24T05:54:19;1.53;;;1.43;;
1414;SDS011;702;49.466;11.086;2023-04-24T05:56:46;1.77;;;1.53;;
1414;SDS011;702;49.466;11.086;2023-04-24T05:59:15;3.17;;;2.33;;
1414;SDS011;702;49.466;11.086;2023-04-24T06:01:44;2.40;;;1.43;;
1414;SDS011;702;49.466;11.086;2023-04-24T06:04:11;2.00;;;1.70;;
1414;SDS011;702;49.466;11.086;2023-04-24T06:06:40;2.27;;;1.87;;
1414;SDS011;702;49.466;11.086;2023-04-24T06:09:07;1.33;;;1.23;;
1414;SDS011;702;49.466;11.086;2023-04-24T06:11:34;1.60;;;1.50;;
1414;SDS011;702;49.466;11.086;2023-04-24T06:14:01;2.07;;;1.50;;
1414;SDS011;702;49.466;11.086;2023-04-24T06:16:29;2.30;;;2.10;;
1414;SDS011;702;49.466;11.086;2023-04-24T06:18:57;2.97;;;1.67;;
1414;SDS011;702;49.466;11.086;2023-04-24T06:21:24;1.77;;;1.33;;
1414;SDS011;702;49.466;11.086;2023-04-24T06:23:53;2.30;;;1.90;;
1414;SDS011;702;49.466;11.086;2023-04-24T06:26:21;1.50;;;1.40;;
1414;SDS011;702;49.466;11.086;2023-04-24T06:28:50;1.23;;;1.10;;
1414;SDS011;702;49.466;11.086;2023-04-24T06:31:18;1.53;;;1.30;;
1414;SDS011;702;49.466;11.086;2023-04-24T06:33:47;3.00;;;1.87;;
1414;SDS011;702;49.466;11.086;2023-04-24T06:36:15;1.17;;;1.10;;
1414;SDS011;702;49.466;11.086;2023-04-24T06:38:43;3.50;;;1.10;;
1414;SDS011;702;49.466;11.086;2023-04-24T06:41:10;1.50;;;1.20;;
1414;SDS011;702;49.466;11.086;2023-04-24T06:43:38;2.00;;;1.03;;
1414;SDS011;702;49.466;11.086;2023-04-24T06:46:05;1.27;;;0.90;;
1414;SDS011;702;49.466;11.086;2023-04-24T06:48:33;1.03;;;1.00;;
1414;SDS011;702;49.466;11.086;2023-04-24T06:51:01;0.67;;;0.67;;
1414;SDS011;702;49.466;11.086;2023-04-24T06:53:28;1.10;;;1.00;;
1414;SDS011;702;49.466;11.086;2023-04-24T06:55:55;1.30;;;1.20;;
1414;SDS011;702;49.466;11.086;2023-04-24T06:58:23;1.27;;;1.17;;
1414;SDS011;702;49.466;11.086;2023-04-24T07:00:51;1.57;;;0.97;;
1414;SDS011;702;49.466;11.086;2023-04-24T07:03:18;1.00;;;0.90;;
1414;SDS011;702;49.466;11.086;2023-04-24T07:05:45;1.17;;;1.00;;
1414;SDS011;702;49.466;11.086;2023-04-24T07:08:14;1.80;;;1.13;;
1414;SDS011;702;49.466;11.086;2023-04-24T07:10:43;2.10;;;0.90;;
1414;SDS011;702;49.466;11.086;2023-04-24T07:13:11;0.70;;;0.60;;
1414;SDS011;702;49.466;11.086;2023-04-24T07:15:38;0.97;;;0.70;;
1414;SDS011;702;49.466;11.086;2023-04-24T07:18:06;0.97;;;0.90;;
1414;SDS011;702;49.466;11.086;2023-04-24T07:20:33;1.00;;;0.80;;
1414;SDS011;702;49.466;11.086;2023-04-24T07:23:01;1.10;;;1.00;;
1414;SDS011;702;49.466;11.086;2023-04-24T07:25:30;2.93;;;0.90;;
1414;SDS011;702;49.466;11.086;2023-04-24T07:27:57;1.00;;;0.63;;
1414;SDS011;702;49.466;11.086;2023-04-24T07:30:24;2.00;;;0.93;;
1414;SDS011;702;49.466;11.086;2023-04-24T07:32:54;1.20;;;1.00;;
1414;SDS011;702;49.466;11.086;2023-04-24T07:35:21;0.90;;;0.77;;
1414;SDS011;702;49.466;11.086;2023-04-24T07:37:50;1.07;;;0.73;;
1414;SDS011;702;49.466;11.086;2023-04-24T07:40:17;1.13;;;0.90;;
1414;SDS011;702;49.466;11.086;2023-04-24T07:42:46;1.07;;;1.00;;
1414;SDS011;702;49.466;11.086;2023-04-24T07:45:14;1.13;;;1.00;;
1414;SDS011;702;49.466;11.086;2023-04-24T07:47:42;1.33;;;1.00;;
1414;SDS011;702;49.466;11.086;2023-04-24T07:50:12;0.87;;;0.80;;
1414;SDS011;702;49.466;11.086;2023-04-24T07:52:40;1.43;;;1.27;;
1414;SDS011;702;49.466;11.086;2023-04-24T07:55:07;1.30;;;1.07;;
1414;SDS011;702;49.466;11.086;2023-04-24T07:57:34;1.07;;;0.97;;
1414;SDS011;702;49.466;11.086;2023-04-24T08:00:04;1.10;;;1.00;;
1414;SDS011;702;49.466;11.086;2023-04-24T08:02:33;1.40;;;1.00;;
1414;SDS011;702;49.466;11.086;2023-04-24T08:05:03;1.33;;;1.23;;
1414;SDS011;702;49.466;11.086;2023-04-24T08:07:31;1.20;;;1.10;;
1414;SDS011;702;49.466;11.086;2023-04-24T08:09:58;1.20;;;1.10;;
1414;SDS011;702;49.466;11.086;2023-04-24T08:12:25;1.53;;;1.00;;
1414;SDS011;702;49.466;11.086;2023-04-24T08:14:52;1.03;;;0.93;;
1414;SDS011;702;49.466;11.086;2023-04-24T08:17:21;2.20;;;1.87;;
1414;SDS011;702;49.466;11.086;2023-04-24T08:19:48;1.40;;;1.30;;
1414;SDS011;702;49.466;11.086;2023-04-24T08:22:16;1.20;;;0.97;;
1414;SDS011;702;49.466;11.086;2023-04-24T08:24:44;1.27;;;1.17;;
1414;SDS011;702;49.466;11.086;2023-04-24T08:27:11;1.23;;;1.13;;
1414;SDS011;702;49.466;11.086;2023-04-24T08:29:38;1.70;;;1.23;;
1414;SDS011;702;49.466;11.086;2023-04-24T08:32:05;1.10;;;0.80;;
1414;SDS011;702;49.466;11.086;2023-04-24T08:34:34;1.70;;;1.40;;
1414;SDS011;702;49.466;11.086;2023-04-24T08:37:02;1.23;;;1.13;;
1414;SDS011;702;49.466;11.086;2023-04-24T08:39:29;1.70;;;1.37;;
1414;SDS011;702;49.466;11.086;2023-04-24T08:41:56;1.47;;;1.33;;
1414;SDS011;702;49.466;11.086;2023-04-24T08:44:30;1.33;;;1.20;;
1414;SDS011;702;49.466;11.086;2023-04-24T08:46:58;2.37;;;1.97;;
1414;SDS011;702;49.466;11.086;2023-04-24T08:49:27;1.80;;;1.60;;
1414;SDS011;702;49.466;11.086;2023-04-24T08:51:56;1.73;;;1.50;;
1414;SDS011;702;49.466;11.086;2023-04-24T08:54:24;1.40;;;1.30;;
1414;SDS011;702;49.466;11.086;2023-04-24T08:56:51;1.77;;;1.20;;
1414;SDS011;702;49.466;11.086;2023-04-24T08:59:22;2.23;;;1.90;;
1414;SDS011;702;49.466;11.086;2023-04-24T09:01:50;1.70;;;1.60;;
1414;SDS011;702;49.466;11.086;2023-04-24T09:04:18;1.80;;;1.70;;
1414;SDS011;702;49.466;11.086;2023-04-24T09:06:47;1.77;;;1.67;;
1414;SDS011;702;49.466;11.086;2023-04-24T09:09:17;2.20;;;1.80;;
1414;SDS011;702;49.466;11.086;2023-04-24T09:11:44;1.80;;;1.50;;
1414;SDS011;702;49.466;11.086;2023-04-24T09:14:11;3.10;;;1.80;;
1414;SDS011;702;49.466;11.086;2023-04-24T09:16:39;2.17;;;1.90;;
1414;SDS011;702;49.466;11.086;2023-04-24T09:19:07;1.80;;;1.70;;
1414;SDS011;702;49.466;11.086;2023-04-24T09:21:35;4.00;;;2.13;;
1414;SDS011;702;49.466;11.086;2023-04-24T09:24:03;1.63;;;1.47;;
1414;SDS011;702;49.466;11.086;2023-04-24T09:26:36;1.47;;;1.37;;
1414;SDS011;702;49.466;11.086;2023-04-24T09:29:03;1.83;;;1.60;;
1414;SDS011;702;49.466;11.086;2023-04-24T09:31:30;1.50;;;1.40;;
1414;SDS011;702;49.466;11.086;2023-04-24T09:33:59;1.43;;;1.33;;
1414;SDS011;702;49.466;11.086;2023-04-24T09:36:29;2.10;;;1.90;;
1414;SDS011;702;49.466;11.086;2023-04-24T09:38:59;1.50;;;1.40;;
1414;SDS011;702;49.466;11.086;2023-04-24T09:41:28;1.70;;;1.60;;
1414;SDS011;702;49.466;11.086;2023-04-24T09:43:57;1.77;;;1.67;;
1414;SDS011;702;49.466;11.086;2023-04-24T09:46:38;1.77;;;1.67;;
1414;SDS011;702;49.466;11.086;2023-04-24T09:49:08;2.80;;;1.50;;
1414;SDS011;702;49.466;11.086;2023-04-24T09:51:38;1.77;;;1.67;;
1414;SDS011;702;49.466;11.086;2023-04-24T09:54:11;1.07;;;1.00;;
1414;SDS011;702;49.466;11.086;2023-04-24T09:56:42;1.27;;;1.03;;
1414;SDS011;702;49.466;11.086;2023-04-24T09:59:14;0.90;;;0.90;;
1414;SDS011;702;49.466;11.086;2023-04-24T10:01:42;1.13;;;1.03;;
1414;SDS011;702;49.466;11.086;2023-04-24T10:04:16;0.80;;;0.80;;
1414;SDS011;702;49.466;11.086;2023-04-24T10:06:46;0.90;;;0.73;;
1414;SDS011;702;49.466;11.086;2023-04-24T10:09:15;1.27;;;1.17;;
1414;SDS011;702;49.466;11.086;2023-04-24T10:11:43;2.10;;;1.30;;
1414;SDS011;702;49.466;11.086;2023-04-24T10:14:14;1.83;;;1.40;;
1414;SDS011;702;49.466;11.086;2023-04-24T10:16:44;1.40;;;1.30;;
1414;SDS011;702;49.466;11.086;2023-04-24T10:19:13;0.80;;;0.80;;
1414;SDS011;702;49.466;11.086;2023-04-24T10:21:42;1.00;;;0.80;;
1414;SDS011;702;49.466;11.086;2023-04-24T10:24:12;0.83;;;0.60;;
1414;SDS011;702;49.466;11.086;2023-04-24T10:26:40;1.07;;;0.80;;
1414;SDS011;702;49.466;11.086;2023-04-24T10:29:08;0.60;;;0.60;;
1414;SDS011;702;49.466;11.086;2023-04-24T10:31:39;1.27;;;1.03;;
1414;SDS011;702;49.466;11.086;2023-04-24T10:34:07;1.13;;;0.90;;
1414;SDS011;702;49.466;11.086;2023-04-24T10:36:38;0.60;;;0.60;;
1414;SDS011;702;49.466;11.086;2023-04-24T10:39:10;0.80;;;0.70;;
1414;SDS011;702;49.466;11.086;2023-04-24T10:41:41;2.00;;;0.93;;
1414;SDS011;702;49.466;11.086;2023-04-24T10:44:09;1.30;;;0.77;;
1414;SDS011;702;49.466;11.086;2023-04-24T10:46:39;0.80;;;0.70;;
1414;SDS011;702;49.466;11.086;2023-04-24T10:49:10;1.37;;;0.87;;
1414;SDS011;702;49.466;11.086;2023-04-24T10:51:45;1.10;;;0.90;;
1414;SDS011;702;49.466;11.086;2023-04-24T10:54:24;1.00;;;0.90;;
1414;SDS011;702;49.466;11.086;2023-04-24T10:56:53;0.97;;;0.83;;
1414;SDS011;702;49.466;11.086;2023-04-24T11:02:48;0.73;;;0.63;;
1414;SDS011;702;49.466;11.086;2023-04-24T11:05:18;0.70;;;0.70;;
1414;SDS011;702;49.466;11.086;2023-04-24T11:10:45;0.60;;;0.50;;
1414;SDS011;702;49.466;11.086;2023-04-24T11:13:22;1.47;;;1.00;;
1414;SDS011;702;49.466;11.086;2023-04-24T11:18:43;1.00;;;0.60;;
1414;SDS011;702;49.466;11.086;2023-04-24T11:21:16;0.80;;;0.70;;
1414;SDS011;702;49.466;11.086;2023-04-24T11:23:44;1.13;;;0.90;;
1414;SDS011;702;49.466;11.086;2023-04-24T11:26:12;1.40;;;0.83;;
1414;SDS011;702;49.466;11.086;2023-04-24T11:28:44;1.47;;;1.37;;
1414;SDS011;702;49.466;11.086;2023-04-24T11:34:11;1.13;;;1.03;;
1414;SDS011;702;49.466;11.086;2023-04-24T11:36:40;1.13;;;0.93;;
1414;SDS011;702;49.466;11.086;2023-04-24T11:39:10;1.30;;;1.00;;
1414;SDS011;702;49.466;11.086;2023-04-24T11:41:38;1.33;;;1.20;;
1414;SDS011;702;49.466;11.086;2023-04-24T11:44:06;1.10;;;1.00;;
1414;SDS011;702;49.466;11.086;2023-04-24T11:46:35;1.60;;;1.50;;
1414;SDS011;702;49.466;11.086;2023-04-24T11:49:05;1.30;;;1.20;;
1414;SDS011;702;49.466;11.086;2023-04-24T11:51:33;1.60;;;1.40;;
1414;SDS011;702;49.466;11.086;2023-04-24T11:54:01;1.43;;;1.23;;
1414;SDS011;702;49.466;11.086;2023-04-24T11:56:29;1.70;;;1.60;;
1414;SDS011;702;49.466;11.086;2023-04-24T11:58:56;1.60;;;1.50;;
1414;SDS011;702;49.466;11.086;2023-04-24T12:01:23;1.50;;;1.40;;
1414;SDS011;702;49.466;11.086;2023-04-24T12:03:50;1.50;;;1.40;;
1414;SDS011;702;49.466;11.086;2023-04-24T12:06:26;1.40;;;1.07;;
1414;SDS011;702;49.466;11.086;2023-04-24T12:08:54;4.50;;;1.27;;
1414;SDS011;702;49.466;11.086;2023-04-24T12:11:23;1.00;;;0.90;;
1414;SDS011;702;49.466;11.086;2023-04-24T12:13:50;1.63;;;1.07;;
1414;SDS011;702;49.466;11.086;2023-04-24T12:16:17;1.20;;;1.07;;
1414;SDS011;702;49.466;11.086;2023-04-24T12:18:45;1.10;;;0.93;;
1414;SDS011;702;49.466;11.086;2023-04-24T12:21:16;1.40;;;1.00;;
1414;SDS011;702;49.466;11.086;2023-04-24T12:23:44;1.70;;;1.50;;
1414;SDS011;702;49.466;11.086;2023-04-24T12:26:14;1.83;;;1.70;;
1414;SDS011;702;49.466;11.086;2023-04-24T12:28:45;1.40;;;1.30;;
1414;SDS011;702;49.466;11.086;2023-04-24T12:31:15;4.43;;;1.90;;
1414;SDS011;702;49.466;11.086;2023-04-24T12:33:43;1.10;;;1.00;;
1414;SDS011;702;49.466;11.086;2023-04-24T12:36:11;1.60;;;1.40;;
1414;SDS011;702;49.466;11.086;2023-04-24T12:38:39;2.23;;;1.30;;
1414;SDS011;702;49.466;11.086;2023-04-24T12:41:10;1.33;;;1.23;;
1414;SDS011;702;49.466;11.086;2023-04-24T12:43:49;1.57;;;1.27;;
1414;SDS011;702;49.466;11.086;2023-04-24T12:46:19;1.30;;;1.20;;
1414;SDS011;702;49.466;11.086;2023-04-24T12:48:46;1.50;;;0.93;;
1414;SDS011;702;49.466;11.086;2023-04-24T12:51:13;1.37;;;1.27;;
1414;SDS011;702;49.466;11.086;2023-04-24T12:53:40;2.20;;;1.30;;
1414;SDS011;702;49.466;11.086;2023-04-24T12:56:07;0.97;;;0.90;;
1414;SDS011;702;49.466;11.086;2023-04-24T12:58:35;1.20;;;1.10;;
1414;SDS011;702;49.466;11.086;2023-04-24T13:01:03;1.20;;;1.10;;
1414;SDS011;702;49.466;11.086;2023-04-24T13:03:30;0.93;;;0.93;;
1414;SDS011;702;49.466;11.086;2023-04-24T13:05:58;4.07;;;1.30;;
1414;SDS011;702;49.466;11.086;2023-04-24T13:08:25;1.33;;;0.80;;
1414;SDS011;702;49.466;11.086;2023-04-24T13:10:52;1.00;;;0.80;;
1414;SDS011;702;49.466;11.086;2023-04-24T13:13:19;0.70;;;0.70;;
1414;SDS011;702;49.466;11.086;2023-04-24T13:15:47;1.30;;;1.20;;
1414;SDS011;702;49.466;11.086;2023-04-24T13:18:15;1.20;;;1.10;;
1414;SDS011;702;49.466;11.086;2023-04-24T13:20:43;1.20;;;1.10;;
1414;SDS011;702;49.466;11.086;2023-04-24T13:23:12;1.30;;;1.20;;
1414;SDS011;702;49.466;11.086;2023-04-24T13:25:39;1.23;;;1.13;;
1414;SDS011;702;49.466;11.086;2023-04-24T13:28:07;1.10;;;1.00;;
1414;SDS011;702;49.466;11.086;2023-04-24T13:30:34;0.97;;;0.93;;
1414;SDS011;702;49.466;11.086;2023-04-24T13:33:01;1.27;;;1.20;;
1414;SDS011;702;49.466;11.086;2023-04-24T13:35:30;1.73;;;1.57;;
1414;SDS011;702;49.466;11.086;2023-04-24T13:37:57;1.60;;;1.30;;
1414;SDS011;702;49.466;11.086;2023-04-24T13:40:26;1.20;;;1.00;;
1414;SDS011;702;49.466;11.086;2023-04-24T13:42:53;2.00;;;1.47;;
1414;SDS011;702;49.466;11.086;2023-04-24T13:45:21;1.03;;;0.93;;
1414;SDS011;702;49.466;11.086;2023-04-24T13:47:48;1.10;;;1.00;;
1414;SDS011;702;49.466;11.086;2023-04-24T13:50:15;1.30;;;1.20;;
1414;SDS011;702;49.466;11.086;2023-04-24T13:52:44;1.23;;;1.13;;
1414;SDS011;702;49.466;11.086;2023-04-24T13:55:11;1.70;;;1.23;;
1414;SDS011;702;49.466;11.086;2023-04-24T13:57:38;1.13;;;1.03;;
1414;SDS011;702;49.466;11.086;2023-04-24T14:00:07;1.83;;;1.47;;
1414;SDS011;702;49.466;11.086;2023-04-24T14:02:36;1.17;;;1.00;;
1414;SDS011;702;49.466;11.086;2023-04-24T14:05:03;1.67;;;1.33;;
1414;SDS011;702;49.466;11.086;2023-04-24T14:07:32;1.97;;;1.50;;
1414;SDS011;702;49.466;11.086;2023-04-24T14:10:01;2.57;;;2.00;;
1414;SDS011;702;49.466;11.086;2023-04-24T14:12:29;1.90;;;1.80;;
1414;SDS011;702;49.466;11.086;2023-04-24T14:14:56;1.43;;;1.33;;
1414;SDS011;702;49.466;11.086;2023-04-24T14:17:23;2.07;;;1.60;;
1414;SDS011;702;49.466;11.086;2023-04-24T14:19:50;1.60;;;1.40;;
1414;SDS011;702;49.466;11.086;2023-04-24T14:22:21;5.40;;;2.00;;
1414;SDS011;702;49.466;11.086;2023-04-24T14:24:48;3.80;;;1.73;;
1414;SDS011;702;49.466;11.086;2023-04-24T14:27:17;1.53;;;1.43;;
1414;SDS011;702;49.466;11.086;2023-04-24T14:29:44;1.30;;;1.20;;
1414;SDS011;702;49.466;11.086;2023-04-24T14:32:11;1.50;;;1.37;;
1414;SDS011;702;49.466;11.086;2023-04-24T14:34:40;1.50;;;1.40;;
1414;SDS011;702;49.466;11.086;2023-04-24T14:37:07;3.10;;;2.17;;
1414;SDS011;702;49.466;11.086;2023-04-24T14:39:35;3.63;;;1.70;;
1414;SDS011;702;49.466;11.086;2023-04-24T14:42:02;1.57;;;1.43;;
1414;SDS011;702;49.466;11.086;2023-04-24T14:46:59;2.87;;;1.67;;
1414;SDS011;702;49.466;11.086;2023-04-24T14:49:26;1.77;;;1.40;;
1414;SDS011;702;49.466;11.086;2023-04-24T14:51:54;1.70;;;1.50;;
1414;SDS011;702;49.466;11.086;2023-04-24T14:54:21;1.63;;;1.47;;
1414;SDS011;702;49.466;11.086;2023-04-24T14:56:49;2.43;;;1.93;;
1414;SDS011;702;49.466;11.086;2023-04-24T14:59:16;1.73;;;1.63;;
1414;SDS011;702;49.466;11.086;2023-04-24T15:01:45;1.43;;;1.13;;
1414;SDS011;702;49.466;11.086;2023-04-24T15:04:12;1.60;;;1.40;;
1414;SDS011;702;49.466;11.086;2023-04-24T15:06:39;1.50;;;1.23;;
1414;SDS011;702;49.466;11.086;2023-04-24T15:09:07;1.90;;;1.10;;
1414;SDS011;702;49.466;11.086;2023-04-24T15:11:34;1.73;;;1.10;;
1414;SDS011;702;49.466;11.086;2023-04-24T15:14:01;1.00;;;0.80;;
1414;SDS011;702;49.466;11.086;2023-04-24T15:16:29;1.10;;;0.93;;
1414;SDS011;702;49.466;11.086;2023-04-24T15:18:58;1.27;;;1.17;;
1414;SDS011;702;49.466;11.086;2023-04-24T15:21:25;1.87;;;1.67;;
1414;SDS011;702;49.466;11.086;2023-04-24T15:23:52;2.83;;;1.47;;
1414;SDS011;702;49.466;11.086;2023-04-24T15:26:21;1.53;;;1.40;;
1414;SDS011;702;49.466;11.086;2023-04-24T15:28:49;2.30;;;1.60;;
1414;SDS011;702;49.466;11.086;2023-04-24T15:31:17;2.20;;;1.90;;
1414;SDS011;702;49.466;11.086;2023-04-24T15:33:45;2.43;;;1.80;;
1414;SDS011;702;49.466;11.086;2023-04-24T15:36:16;3.03;;;1.90;;